Time;durP1;ratioP1;P1;durP2;ratioP2;P2;SDS_P1;SDS_P2;PMS_P1;PMS_P2;Temp;Humidity;BMP_temperature;BMP_pressure;BME280_temperature;BME280_humidity;BME280_pressure;Samples;Min_cycle;Max_cycle;Signal;HPM_P1;HPM_P2
2022/08/13 00:00:38;;;;;;;14.95;13.15;;;;;;;17.33;93.72;99189.80;4225617;83;21066;-89
2022/08/13 00:12:59;;;;;;;18.48;13.70;;;;;;;17.45;94.57;99178.98;4207966;83;21083;-88
2022/08/13 00:19:04;;;;;;;21.12;15.40;;;;;;;17.52;94.90;99179.50;4172571;82;72534;-85
2022/08/13 00:25:09;;;;;;;21.33;15.08;;;;;;;17.56;95.26;99181.01;4115272;85;21001;-85
2022/08/13 00:31:16;;;;;;;22.85;17.40;;;;;;;17.59;95.60;99167.72;4118053;85;21895;-85
2022/08/13 00:37:22;;;;;;;22.85;17.82;;;;;;;17.63;95.96;99162.14;4095842;85;21060;-85
2022/08/13 00:43:33;;;;;;;23.50;17.30;;;;;;;17.66;96.16;99147.45;4097360;85;21076;-85
2022/08/13 00:49:35;;;;;;;24.92;18.75;;;;;;;17.69;96.65;99150.18;4207991;84;20979;-85
2022/08/13 00:55:37;;;;;;;20.50;17.35;;;;;;;17.75;96.84;99149.09;4108292;84;21652;-85
2022/08/13 01:01:44;;;;;;;22.42;17.40;;;;;;;17.79;97.06;99140.15;4194326;84;21457;-85
2022/08/13 01:07:46;;;;;;;23.32;17.23;;;;;;;17.78;97.05;99133.02;4085367;85;20989;-85
2022/08/13 01:13:51;;;;;;;21.62;17.73;;;;;;;17.81;97.30;99134.95;4198378;84;21582;-85
2022/08/13 01:19:54;;;;;;;26.73;19.17;;;;;;;17.82;97.52;99121.31;4088377;85;21599;-84
2022/08/13 01:25:59;;;;;;;27.37;19.95;;;;;;;17.80;97.62;99110.66;4083134;86;21060;-85
2022/08/13 01:32:00;;;;;;;30.97;21.52;;;;;;;17.79;97.91;99111.08;4082688;86;20989;-84
2022/08/13 01:38:02;;;;;;;29.05;21.35;;;;;;;17.69;97.67;99103.71;4150427;84;21051;-85
2022/08/13 01:44:04;;;;;;;27.62;20.70;;;;;;;17.63;98.33;99102.63;4164835;84;21085;-85
2022/08/13 01:56:31;;;;;;;29.02;20.52;;;;;;;17.71;98.71;99106.85;4161715;84;21469;-85
2022/08/13 02:02:34;;;;;;;29.65;19.85;;;;;;;17.73;99.03;99100.30;4160132;84;21553;-85
2022/08/13 02:08:40;;;;;;;28.55;20.35;;;;;;;17.76;99.29;99098.08;4158507;84;20993;-85
2022/08/13 02:14:42;;;;;;;25.77;18.25;;;;;;;17.78;99.36;99094.27;4160878;84;21025;-86
2022/08/13 02:20:47;;;;;;;26.07;19.07;;;;;;;17.73;99.12;99088.60;4169024;84;21480;-85
2022/08/13 02:26:48;;;;;;;28.40;20.45;;;;;;;17.74;99.62;99098.50;4206137;84;21018;-85
2022/08/13 02:32:50;;;;;;;28.27;18.92;;;;;;;17.73;99.14;99083.06;4201193;84;21046;-85
2022/08/13 02:39:02;;;;;;;25.17;18.85;;;;;;;17.69;99.83;99092.63;4189882;84;21070;-85
2022/08/13 02:45:06;;;;;;;27.65;19.62;;;;;;;17.72;100.00;99088.44;4192745;84;21016;-85
2022/08/13 02:51:11;;;;;;;24.63;17.90;;;;;;;17.72;100.00;99095.95;4192263;84;21056;-85
2022/08/13 02:57:13;;;;;;;25.65;18.37;;;;;;;17.70;100.00;99093.59;4193459;84;21035;-85
2022/08/13 03:03:21;;;;;;;26.35;18.25;;;;;;;17.72;100.00;99100.89;4189059;84;21594;-85
2022/08/13 03:09:23;;;;;;;25.10;18.82;;;;;;;17.71;100.00;99091.63;4196801;84;21027;-86
2022/08/13 03:15:27;;;;;;;27.07;18.90;;;;;;;17.69;100.00;99080.17;4208300;83;21582;-85
2022/08/13 03:21:39;;;;;;;24.87;17.07;;;;;;;17.72;100.00;99074.59;4187846;83;21042;-85
2022/08/13 03:27:41;;;;;;;27.55;19.60;;;;;;;17.75;100.00;99063.27;4188881;84;21480;-85
2022/08/13 03:33:47;;;;;;;35.28;23.05;;;;;;;17.74;100.00;99055.58;4119091;85;21591;-86
2022/08/13 03:39:49;;;;;;;29.57;20.35;;;;;;;17.76;100.00;99053.77;4071721;86;21111;-85
2022/08/13 03:45:50;;;;;;;36.58;23.18;;;;;;;17.76;100.00;99059.31;4123561;85;21059;-85
2022/08/13 03:51:55;;;;;;;37.85;22.25;;;;;;;17.74;100.00;99064.48;4208876;84;21020;-85
2022/08/13 03:57:58;;;;;;;39.13;24.57;;;;;;;17.71;100.00;99069.47;4199945;84;20987;-85
2022/08/13 04:03:59;;;;;;;34.60;21.77;;;;;;;17.74;100.00;99069.42;4190300;84;21517;-85
2022/08/13 04:10:01;;;;;;;37.15;23.55;;;;;;;17.73;100.00;99070.61;4186584;84;21031;-85
2022/08/13 04:16:08;;;;;;;40.80;24.80;;;;;;;17.73;100.00;99074.77;4174962;84;21062;-85
2022/08/13 04:22:10;;;;;;;43.92;25.35;;;;;;;17.65;100.00;99073.31;4108541;84;21552;-85
2022/08/13 04:28:13;;;;;;;49.48;25.20;;;;;;;17.65;100.00;99069.77;4108283;84;21763;-85
2022/08/13 04:34:19;;;;;;;44.63;24.12;;;;;;;17.71;100.00;99071.63;4115249;85;21151;-85
2022/08/13 04:40:22;;;;;;;46.50;26.05;;;;;;;17.65;100.00;99065.63;4108556;85;21706;-85
2022/08/13 04:46:25;;;;;;;40.67;23.12;;;;;;;17.62;100.00;99066.47;4107101;85;21437;-85
2022/08/13 04:52:27;;;;;;;41.70;22.60;;;;;;;17.68;100.00;99070.31;4111237;85;21036;-84
2022/08/13 04:58:35;;;;;;;36.80;22.82;;;;;;;17.74;100.00;99059.73;4107123;85;22079;-85
2022/08/13 05:04:37;;;;;;;47.93;22.90;;;;;;;17.80;100.00;99059.43;4110101;85;21018;-85
2022/08/13 05:10:39;;;;;;;35.73;21.48;;;;;;;17.88;100.00;99060.88;4111233;85;21494;-86
2022/08/13 05:16:41;;;;;;;39.00;22.65;;;;;;;17.89;100.00;99063.81;4112601;85;21048;-85
2022/08/13 05:22:42;;;;;;;42.53;23.90;;;;;;;17.93;100.00;99065.15;4184985;84;21084;-85
2022/08/13 05:28:45;;;;;;;47.80;25.30;;;;;;;17.99;100.00;99062.07;4201228;84;20980;-85
2022/08/13 05:34:49;;;;;;;44.58;24.30;;;;;;;17.99;100.00;99057.33;4199524;84;21019;-85
2022/08/13 05:41:02;;;;;;;40.50;23.38;;;;;;;17.99;100.00;99054.55;4188890;83;21090;-85
2022/08/13 05:47:05;;;;;;;43.68;23.73;;;;;;;18.04;100.00;99053.28;4194555;84;21011;-85
2022/08/13 05:53:09;;;;;;;42.58;25.23;;;;;;;18.05;100.00;99053.45;4197313;84;21534;-85
2022/08/13 06:03:24;;;;;;;40.12;22.98;;;;;;;18.05;100.00;99055.63;4194454;83;21158;-86
2022/08/13 06:05:15;;;;;;;41.85;23.22;;;;;;;18.06;100.00;99055.00;4166274;84;20995;-85
2022/08/13 06:11:19;;;;;;;40.60;24.15;;;;;;;18.11;100.00;99055.91;4197381;82;21083;-85
2022/08/13 06:17:23;;;;;;;41.70;24.25;;;;;;;18.12;100.00;99051.33;4184837;82;22022;-86
2022/08/13 06:23:28;;;;;;;35.98;22.30;;;;;;;18.13;100.00;99044.60;4199148;82;20968;-86
2022/08/13 06:29:32;;;;;;;38.73;23.45;;;;;;;18.19;100.00;99050.42;4193185;83;20970;-85
2022/08/13 06:35:34;;;;;;;35.28;20.70;;;;;;;18.20;100.00;99051.98;4201856;83;21002;-84
2022/08/13 06:41:36;;;;;;;35.38;22.75;;;;;;;18.22;100.00;99053.73;4194733;83;21941;-85
2022/08/13 06:47:41;;;;;;;32.40;20.23;;;;;;;18.26;100.00;99041.99;4196481;83;21009;-85
2022/08/13 06:53:45;;;;;;;33.25;21.50;;;;;;;18.31;100.00;99041.47;4179914;84;21521;-85
2022/08/13 06:59:49;;;;;;;30.00;21.70;;;;;;;18.34;100.00;99038.64;4188430;83;21068;-86
2022/08/13 07:05:51;;;;;;;35.95;23.10;;;;;;;18.37;100.00;99037.79;4179523;82;21060;-85
2022/08/13 07:11:52;;;;;;;39.05;24.43;;;;;;;18.42;100.00;99042.08;4178726;84;21017;-85
2022/08/13 07:17:56;;;;;;;36.65;24.20;;;;;;;18.44;100.00;99041.06;4194426;84;21124;-83
2022/08/13 07:24:02;;;;;;;34.83;23.65;;;;;;;18.44;100.00;99043.23;4192686;83;21067;-82
2022/08/13 07:30:03;;;;;;;37.67;24.63;;;;;;;18.43;100.00;99037.50;4190525;83;20993;-82
2022/08/13 07:36:08;;;;;;;33.83;22.27;;;;;;;18.46;100.00;99040.05;4184200;84;21920;-81
2022/08/13 07:42:14;;;;;;;34.80;24.40;;;;;;;18.46;100.00;99042.81;4189443;83;20988;-83
2022/08/13 07:48:15;;;;;;;32.03;22.58;;;;;;;18.48;100.00;99041.17;4178276;84;20992;-82
2022/08/13 07:54:17;;;;;;;31.68;21.33;;;;;;;18.51;100.00;99043.70;4181658;84;21472;-82
2022/08/13 08:00:24;;;;;;;30.23;21.37;;;;;;;18.55;100.00;99046.59;4188682;84;21012;-83
2022/08/13 08:06:26;;;;;;;32.95;22.07;;;;;;;18.58;100.00;99045.73;4191634;82;21023;-82
2022/08/13 08:12:32;;;;;;;28.90;19.87;;;;;;;18.65;100.00;99041.41;4186190;83;21627;-83
2022/08/13 08:18:41;;;;;;;21.65;14.98;;;;;;;18.68;100.00;99037.78;4200217;83;21024;-83
2022/08/13 08:24:50;;;;;;;20.62;14.38;;;;;;;18.68;100.00;99025.93;4203778;83;21006;-82
2022/08/13 08:30:48;;;;;;;19.12;14.07;;;;;;;18.67;100.00;99028.50;4200432;83;21119;-82
2022/08/13 08:36:56;;;;;;;20.45;13.55;;;;;;;18.64;100.00;99023.22;4205016;83;21167;-81
2022/08/13 08:43:04;;;;;;;14.95;11.10;;;;;;;18.66;100.00;99014.47;4200426;83;21031;-83
2022/08/13 08:49:07;;;;;;;13.58;10.03;;;;;;;18.70;100.00;99005.47;4209032;83;21637;-83
2022/08/13 08:55:11;;;;;;;17.45;11.38;;;;;;;18.77;100.00;99006.72;4205380;83;20987;-82
2022/08/13 09:01:13;;;;;;;16.02;11.50;;;;;;;18.81;100.00;99001.86;4210167;83;21042;-82
2022/08/13 09:07:17;;;;;;;16.62;11.33;;;;;;;18.83;100.00;99010.54;4201920;83;21026;-83
2022/08/13 09:13:21;;;;;;;15.35;10.50;;;;;;;18.84;100.00;99001.63;4207673;83;21026;-82
2022/08/13 09:19:23;;;;;;;17.00;11.25;;;;;;;18.86;100.00;98990.86;4208923;83;21078;-82
2022/08/13 09:25:26;;;;;;;21.40;12.73;;;;;;;19.03;100.00;98985.55;4216768;83;21000;-82
2022/08/13 09:31:29;;;;;;;17.00;12.30;;;;;;;19.30;100.00;98979.95;4210090;83;20959;-84
2022/08/13 09:37:34;;;;;;;20.85;15.25;;;;;;;19.53;100.00;98983.17;4222408;83;21103;-83
2022/08/13 09:43:41;;;;;;;14.68;12.58;;;;;;;19.79;100.00;98978.72;4193857;83;21536;-83
2022/08/13 09:49:43;;;;;;;;;;;;;;;19.92;100.00;98976.00;4209455;83;21490;-82
2022/08/13 09:55:45;;;;;;;15.63;12.43;;;;;;;20.05;100.00;98974.05;4210295;83;20146;-83
2022/08/13 10:01:49;;;;;;;16.35;11.73;;;;;;;20.19;100.00;98967.52;4213761;83;21027;-83
2022/08/13 10:07:49;;;;;;;13.65;11.43;;;;;;;20.27;100.00;98961.15;4201590;83;20990;-82
2022/08/13 10:13:50;;;;;;;14.10;11.48;;;;;;;20.26;100.00;98960.99;4204973;83;21011;-82
2022/08/13 10:19:53;;;;;;;15.98;12.30;;;;;;;20.23;100.00;98959.09;4208228;83;21045;-83
2022/08/13 10:25:54;;;;;;;15.38;12.03;;;;;;;20.17;100.00;98959.47;4204109;83;20999;-82
2022/08/13 10:31:56;;;;;;;13.72;11.48;;;;;;;20.06;100.00;98952.00;4204210;83;21582;-82
2022/08/13 10:37:57;;;;;;;14.00;11.75;;;;;;;19.99;100.00;98954.36;4207349;83;21083;-82
2022/08/13 10:44:00;;;;;;;14.75;10.08;;;;;;;19.94;100.00;98948.55;4208618;83;21002;-82
2022/08/13 10:50:01;;;;;;;13.72;11.43;;;;;;;19.93;100.00;98943.62;4209713;83;21676;-82
2022/08/13 10:56:03;;;;;;;14.05;11.57;;;;;;;19.95;100.00;98941.16;4213428;83;21054;-83
2022/08/13 11:02:08;;;;;;;14.95;12.07;;;;;;;19.99;100.00;98939.08;4211291;83;21030;-82
2022/08/13 11:08:14;;;;;;;13.45;11.30;;;;;;;20.02;100.00;98929.08;4212113;83;21537;-82
2022/08/13 11:14:18;;;;;;;;;;;;;;;20.06;100.00;98920.05;4205994;83;21072;-82
2022/08/13 11:20:22;;;;;;;13.62;11.15;;;;;;;20.12;100.00;98921.06;4208296;83;20417;-83
2022/08/13 11:26:26;;;;;;;14.68;11.63;;;;;;;20.14;100.00;98918.03;4206172;83;21473;-82
2022/08/13 11:32:28;;;;;;;15.15;13.38;;;;;;;20.05;100.00;98924.03;4219623;83;21056;-82
2022/08/13 11:38:30;;;;;;;12.63;11.38;;;;;;;20.00;100.00;98923.95;4205514;83;21020;-82
2022/08/13 11:44:31;;;;;;;14.10;11.90;;;;;;;19.98;100.00;98921.46;4201445;83;21693;-82
2022/08/13 11:50:33;;;;;;;14.20;12.58;;;;;;;20.04;100.00;98926.05;4203348;83;21532;-82
2022/08/13 11:56:34;;;;;;;13.40;11.97;;;;;;;20.09;100.00;98919.92;4213663;82;21001;-84
2022/08/13 12:02:36;;;;;;;14.93;13.03;;;;;;;20.15;100.00;98924.38;4205803;83;21544;-82
2022/08/13 12:08:37;;;;;;;16.40;13.48;;;;;;;20.20;100.00;98922.45;4206904;83;21602;-84
2022/08/13 12:14:39;;;;;;;16.80;14.15;;;;;;;20.25;100.00;98916.33;4210473;83;21016;-83
2022/08/13 12:20:40;;;;;;;16.48;14.58;;;;;;;20.24;100.00;98916.17;4217726;82;21115;-84
2022/08/13 12:26:42;;;;;;;16.42;14.65;;;;;;;20.40;100.00;98901.41;4218206;83;21543;-83
2022/08/13 12:32:44;;;;;;;15.93;14.23;;;;;;;20.69;100.00;98891.00;4208941;83;21009;-82
2022/08/13 12:38:47;;;;;;;18.57;13.60;;;;;;;20.98;100.00;98889.69;4207377;83;21017;-81
2022/08/13 12:44:48;;;;;;;17.17;13.25;;;;;;;21.26;100.00;98883.18;4219355;83;21019;-80
2022/08/13 12:50:49;;;;;;;17.80;13.68;;;;;;;21.56;100.00;98876.95;4210692;83;21928;-83
2022/08/13 12:56:51;;;;;;;14.00;12.60;;;;;;;21.79;100.00;98877.17;4208748;83;21016;-81
2022/08/13 13:02:52;;;;;;;15.08;12.03;;;;;;;21.99;100.00;98861.55;4211270;83;21014;-80
2022/08/13 13:08:53;;;;;;;14.23;12.18;;;;;;;22.17;100.00;98860.25;4209989;82;21603;-80
2022/08/13 13:14:55;;;;;;;13.75;12.18;;;;;;;22.18;100.00;98860.41;4213059;83;21012;-79
2022/08/13 13:20:58;;;;;;;14.15;12.75;;;;;;;22.02;100.00;98850.87;4208887;83;21552;-81
2022/08/13 13:26:59;;;;;;;13.10;11.80;;;;;;;22.01;100.00;98845.13;4235214;81;21989;-81
2022/08/13 13:33:02;;;;;;;14.65;12.37;;;;;;;21.99;100.00;98836.46;4226844;83;21388;-81
2022/08/13 13:39:03;;;;;;;13.68;11.80;;;;;;;21.96;100.00;98833.16;4235657;83;21039;-80
2022/08/13 13:45:06;;;;;;;15.75;13.32;;;;;;;21.80;100.00;98829.96;4231261;83;21010;-82
2022/08/13 13:51:12;;;;;;;15.30;13.70;;;;;;;21.54;100.00;98853.57;4220805;83;21030;-82
2022/08/13 13:57:13;;;;;;;16.15;14.47;;;;;;;21.29;100.00;98859.22;4237963;83;21614;-83
2022/08/13 14:03:15;;;;;;;19.12;15.60;;;;;;;20.98;100.00;98868.81;4237300;83;21008;-85
2022/08/13 14:09:16;;;;;;;20.32;15.45;;;;;;;20.78;100.00;98857.73;4234349;83;21023;-83
2022/08/13 14:15:25;;;;;;;18.52;15.40;;;;;;;20.69;100.00;98851.43;4223841;83;21038;-83
2022/08/13 14:21:27;;;;;;;19.30;14.73;;;;;;;20.59;100.00;98856.73;4217352;83;21044;-83
2022/08/13 14:27:59;;;;;;;20.00;15.35;;;;;;;20.59;100.00;98849.78;4207155;83;21124;-81
2022/08/13 14:34:01;;;;;;;16.65;13.72;;;;;;;20.62;100.00;98843.92;4194297;83;21074;-81
2022/08/13 14:40:13;;;;;;;16.50;14.75;;;;;;;20.58;100.00;98844.03;4207243;83;21014;-81
2022/08/13 14:46:33;;;;;;;15.95;14.35;;;;;;;20.59;100.00;98838.66;4205493;83;25814;-81
2022/08/13 14:52:42;;;;;;;16.82;12.75;;;;;;;20.71;100.00;98839.25;4211968;83;21400;-82
2022/08/13 14:58:43;;;;;;;17.50;14.10;;;;;;;20.73;100.00;98830.46;4211305;83;21035;-82
2022/08/13 15:04:47;;;;;;;15.45;13.85;;;;;;;20.71;100.00;98836.47;4210012;83;20995;-80
2022/08/13 15:10:52;;;;;;;16.17;13.68;;;;;;;20.81;100.00;98841.53;4202644;83;21156;-81
2022/08/13 15:16:55;;;;;;;19.55;15.08;;;;;;;20.85;100.00;98834.63;4196159;83;21053;-82
2022/08/13 15:22:59;;;;;;;17.75;14.10;;;;;;;20.90;100.00;98823.54;4214234;82;21931;-81
2022/08/13 15:29:01;;;;;;;19.82;15.05;;;;;;;20.95;100.00;98814.63;4210992;83;21096;-82
2022/08/13 15:35:08;;;;;;;15.58;13.80;;;;;;;20.98;100.00;98824.89;4208351;84;21074;-81
2022/08/13 15:41:09;;;;;;;17.35;15.55;;;;;;;21.00;100.00;98823.84;4195303;84;21112;-82
2022/08/13 15:47:16;;;;;;;15.90;14.25;;;;;;;21.01;100.00;98807.30;4189737;84;21041;-81
2022/08/13 15:53:24;;;;;;;19.25;16.35;;;;;;;21.04;100.00;98805.00;4197154;84;21047;-81
2022/08/13 15:59:25;;;;;;;18.35;15.70;;;;;;;21.05;100.00;98787.08;4212228;82;20990;-82
2022/08/13 16:05:30;;;;;;;17.00;15.20;;;;;;;21.03;100.00;98770.06;4197068;83;22289;-81
2022/08/13 16:11:42;;;;;;;19.10;16.85;;;;;;;20.98;100.00;98772.81;4189772;84;21127;-82
2022/08/13 16:17:47;;;;;;;21.42;16.87;;;;;;;20.93;100.00;98792.82;4106907;85;21008;-83
2022/08/13 16:23:55;;;;;;;20.57;16.70;;;;;;;20.89;100.00;98803.27;4107951;85;21115;-84
2022/08/13 16:30:00;;;;;;;14.53;12.35;;;;;;;20.81;100.00;98805.36;4214013;82;21034;-88
2022/08/13 16:36:03;;;;;;;19.00;11.05;;;;;;;20.52;100.00;98814.44;4211037;82;21017;-89
2022/08/13 16:42:09;;;;;;;14.83;10.85;;;;;;;19.94;100.00;98819.36;4198340;83;20990;-86
2022/08/13 16:48:12;;;;;;;;;;;;;;;19.61;100.00;98813.16;4216504;82;21500;-85
2022/08/13 16:54:14;;;;;;;13.78;10.90;;;;;;;19.52;100.00;98806.09;4224445;82;20172;-85
2022/08/13 17:13:21;;;;;;;15.68;10.40;;;;;;;19.35;100.00;98814.89;4180359;84;20129;-84
2022/08/13 17:19:25;;;;;;;15.75;10.68;;;;;;;19.35;100.00;98815.69;4183088;84;21023;-83
2022/08/13 17:25:28;;;;;;;15.23;12.68;;;;;;;19.42;100.00;98814.09;4207402;83;21122;-84
2022/08/13 17:31:29;;;;;;;11.60;10.03;;;;;;;19.45;100.00;98807.66;4197395;83;20993;-84
2022/08/13 17:37:31;;;;;;;18.25;10.82;;;;;;;19.42;100.00;98806.39;4194447;84;21425;-88
2022/08/13 17:43:32;;;;;;;12.65;11.25;;;;;;;19.44;100.00;98808.09;4200438;84;20977;-84
2022/08/13 17:49:42;;;;;;;14.25;10.85;;;;;;;19.48;100.00;98798.45;4197235;83;21575;-83
2022/08/13 17:55:44;;;;;;;14.05;11.60;;;;;;;19.51;100.00;98802.36;4216172;83;21002;-83
2022/08/13 18:08:15;;;;;;;17.92;12.88;;;;;;;19.50;100.00;98802.97;4230181;82;22010;-83
2022/08/13 18:14:34;;;;;;;13.78;11.83;;;;;;;19.44;100.00;98810.27;4230705;82;20991;-83
2022/08/13 18:20:36;;;;;;;17.45;11.35;;;;;;;19.40;100.00;98813.77;4226546;82;20989;-84
2022/08/13 18:26:39;;;;;;;16.07;12.55;;;;;;;19.39;100.00;98821.11;4092755;83;9999783;-84
2022/08/13 18:32:45;;;;;;;14.55;13.05;;;;;;;19.38;100.00;98825.91;4204727;83;21680;-83
2022/08/13 18:45:58;;;;;;;18.37;14.83;;;;;;;19.39;100.00;98834.39;4217316;83;21007;-84
2022/08/13 18:52:08;;;;;;;22.77;15.45;;;;;;;19.39;100.00;98843.32;4229421;83;21031;-83
2022/08/13 18:58:34;;;;;;;16.75;14.47;;;;;;;19.36;100.00;98849.75;4226647;83;21060;-83
2022/08/13 19:04:36;;;;;;;17.65;15.23;;;;;;;19.34;100.00;98850.81;4215804;83;21049;-83
2022/08/13 19:10:57;;;;;;;15.72;13.90;;;;;;;19.34;100.00;98846.66;4204460;83;21964;-83
2022/08/13 19:17:06;;;;;;;22.07;15.40;;;;;;;19.32;100.00;98851.25;4204567;83;21541;-83
2022/08/13 19:23:20;;;;;;;20.97;17.57;;;;;;;19.33;100.00;98846.46;4206521;83;20996;-83
2022/08/13 19:29:22;;;;;;;20.60;18.23;;;;;;;19.30;100.00;98843.17;4196665;82;21527;-86
2022/08/13 19:35:26;;;;;;;18.92;15.78;;;;;;;19.25;100.00;98836.73;4196553;83;21006;-85
2022/08/13 19:41:33;;;;;;;17.07;15.00;;;;;;;19.19;100.00;98834.31;4214391;83;21059;-84
2022/08/13 19:47:49;;;;;;;23.47;16.50;;;;;;;19.14;100.00;98837.64;4224495;83;20986;-84
2022/08/13 19:53:54;;;;;;;20.15;16.50;;;;;;;19.10;100.00;98824.45;4197527;83;20992;-86
2022/08/13 20:00:06;;;;;;;20.08;14.95;;;;;;;19.03;100.00;98819.09;4198736;83;21500;-86
2022/08/13 20:06:06;;;;;;;18.05;15.28;;;;;;;19.00;100.00;98821.33;4227496;83;20978;-84
2022/08/13 20:12:11;;;;;;;19.30;17.17;;;;;;;19.02;100.00;98817.52;4207222;83;21004;-84
2022/08/13 20:18:13;;;;;;;20.90;14.53;;;;;;;19.05;100.00;98810.50;4213174;83;20979;-84
2022/08/13 20:24:36;;;;;;;15.03;13.43;;;;;;;19.07;100.00;98805.30;4221803;82;21091;-84
2022/08/13 20:30:48;;;;;;;16.02;14.13;;;;;;;19.09;100.00;98793.14;4222396;83;21604;-84
2022/08/13 20:37:03;;;;;;;17.80;14.43;;;;;;;19.10;100.00;98785.01;4210704;83;21025;-84
2022/08/13 20:43:11;;;;;;;18.25;14.30;;;;;;;19.09;100.00;98786.20;4215412;83;21040;-85
2022/08/13 20:49:13;;;;;;;19.00;14.05;;;;;;;19.07;100.00;98785.09;4205539;83;21023;-85
2022/08/13 20:55:14;;;;;;;17.48;13.05;;;;;;;19.06;100.00;98778.76;4209663;83;21536;-84
2022/08/13 21:01:16;;;;;;;16.65;13.03;;;;;;;19.07;100.00;98782.32;4210107;83;21045;-84
2022/08/13 21:07:18;;;;;;;15.68;13.90;;;;;;;19.03;100.00;98776.86;4199893;84;21566;-85
2022/08/13 21:13:24;;;;;;;16.85;15.03;;;;;;;18.97;100.00;98773.66;4196653;84;21077;-85
2022/08/13 21:19:31;;;;;;;19.00;13.53;;;;;;;18.92;100.00;98763.11;4204589;84;21025;-84
2022/08/13 21:25:33;;;;;;;15.13;12.95;;;;;;;18.88;100.00;98754.88;4184052;84;21003;-83
2022/08/13 21:31:44;;;;;;;15.05;13.10;;;;;;;18.89;100.00;98751.50;4177350;84;20994;-84
2022/08/13 21:37:57;;;;;;;17.50;13.48;;;;;;;18.92;100.00;98750.00;4170541;84;22229;-84
2022/08/13 21:44:04;;;;;;;17.27;14.55;;;;;;;18.97;100.00;98744.53;4181631;84;21489;-84
2022/08/13 21:50:07;;;;;;;18.55;14.50;;;;;;;18.97;100.00;98741.76;4168773;83;21020;-84
2022/08/13 21:56:21;;;;;;;16.15;14.15;;;;;;;18.88;100.00;98729.92;4179103;84;21023;-84
2022/08/13 22:02:26;;;;;;;17.35;15.45;;;;;;;18.84;100.00;98729.84;4177452;84;21043;-83
2022/08/13 22:08:28;;;;;;;15.45;12.68;;;;;;;18.81;100.00;98723.78;4160778;84;21483;-84
2022/08/13 22:14:34;;;;;;;18.98;15.95;;;;;;;18.79;100.00;98719.27;4158678;83;21097;-84
2022/08/13 22:20:34;;;;;;;21.73;16.67;;;;;;;18.78;100.00;98712.94;4125903;84;21027;-84
2022/08/13 22:26:37;;;;;;;15.43;13.88;;;;;;;18.79;100.00;98713.13;4186572;83;21036;-84
2022/08/13 22:32:39;;;;;;;20.25;16.60;;;;;;;18.79;100.00;98708.97;4204857;84;21918;-83
2022/08/13 22:38:50;;;;;;;18.42;14.20;;;;;;;18.80;100.00;98709.12;4192406;84;21601;-84
2022/08/13 22:44:54;;;;;;;16.73;14.43;;;;;;;18.81;100.00;98707.91;4199286;83;21071;-84
2022/08/13 22:50:56;;;;;;;20.52;16.35;;;;;;;18.82;100.00;98704.53;4194543;84;20967;-84
2022/08/13 22:56:57;;;;;;;17.57;13.72;;;;;;;18.87;100.00;98700.61;4193746;84;21182;-83
2022/08/13 23:02:59;;;;;;;17.10;14.68;;;;;;;18.88;100.00;98700.80;4197228;83;21068;-84
2022/08/13 23:09:00;;;;;;;17.85;13.88;;;;;;;18.90;100.00;98690.66;4199960;84;20960;-84
2022/08/13 23:15:09;;;;;;;13.32;11.95;;;;;;;18.89;100.00;98684.31;4194869;84;21600;-83
2022/08/13 23:21:11;;;;;;;16.37;14.68;;;;;;;18.90;100.00;98681.73;4205813;84;20991;-84
2022/08/13 23:33:39;;;;;;;14.78;13.28;;;;;;;18.85;100.00;98675.92;4123645;85;20985;-84
2022/08/13 23:39:42;;;;;;;14.50;12.95;;;;;;;18.79;100.00;98665.98;4213436;83;21535;-83
2022/08/13 23:45:44;;;;;;;15.58;13.88;;;;;;;18.79;100.00;98657.67;4216205;83;21050;-84
2022/08/13 23:52:17;;;;;;;19.98;14.05;;;;;;;18.80;100.00;98652.28;4218061;83;21003;-84
2022/08/13 23:58:19;;;;;;;15.10;13.35;;;;;;;18.82;100.00;98658.78;4231960;83;21038;-84
